Terminal Aerodrome Forecast
Issued by NWS Bismarck, ND

Home | Current Version | Previous Version | Text Only | Print | Product List | Glossary On
Versions: 1 2 3 4 5 6 7 8 9 10 11 12 13 14 15
000
FTUS43 KBIS 260500
TAFISN
TAF
KISN 260535Z 2606/2706 13010KT P6SM BKN250
     FM261200 17006KT P6SM SCT100 BKN250
     FM261600 23006KT P6SM SCT100 BKN250
     FM261800 28012G20KT P6SM BKN100 BKN250
     FM270000 27007KT P6SM SCT100 BKN250=

USA.gov is the U.S. government's official web portal to all federal, state and local government web resources and services.